Pittsburgh, PA (15214)

11:15 AM EDT on August 26, 2016 (GMT -0400)
Brighton Heights | | Change Station

Elev 906 ft 40.48 °N, 80.04 °W | Updated 8 minutes ago

Scattered Clouds
Scattered Clouds
82.2 °F
Feels Like 86 °F
N
4.2
Wind Variable Wind from WNW

Today
High -- | Low -- °F
--% Chance of Precip.
Yesterday
High -- | Low -- °F
Precip. -- in
Pressure 30.14 in
Visibility 10.0 miles
Clouds Scattered Clouds 2200 ft
Scattered Clouds 3000 ft
Heat Index 86 °F
Dew Point 70 °F
Humidity 66%
Rainfall 0.30 in
Snow Depth Not available.
6:42 AM 8:00 PM
Waning Crescent, 34% visible
METAR KAGC 261453Z 27004KT 10SM SCT022 SCT030 27/20 A3015 RMK AO2 SLP204 T02670200 51007
Pressure 30.14 in
Visibility 10.0 miles
Clouds Scattered Clouds 2200 ft
Scattered Clouds 3000 ft
Heat Index 86 °F
Dew Point 70 °F
Humidity 66%
Rainfall 0.30 in
Snow Depth Not available.
6:42 AM 8:00 PM
Waning Crescent, 34% visible
METAR KAGC 261453Z 27004KT 10SM SCT022 SCT030 27/20 A3015 RMK AO2 SLP204 T02670200 51007

10-Day Weather Forecast

Almanac

Astronomy

Aug. 26, 2016 Rise Set
Actual Time
Civil Twilight
Nautical Twilight
Astronomical Twilight
Moon
Length of Visible Light
Length of Day
Tomorrow will be .
, % of the Moon is Illuminated

Today's Extremes

State Highs State Lows

Community

WunderPhotos

Upload Photos

1,935,098 photos uploaded!

WunderBlog® & News

Nearby

Air Quality

  Air Quality AQ Index Pollutant
Not available.

Snow Depth

Station Depth Elevation

Earthquake Activity

City Distance Mag. Time & Date
Minimum magnitude displayed is 2.5.

Coastal Water Temperatures

Place Temperature

Stations

Nearby Weather Stations

Station Location Temp. Windchill Dew Point Humidity Wind Precip. Elev Updated Type
                   

Watches & Warnings

There are currently no watches in effect.